sensor_id;sensor_type;location;lat;lon;timestamp;temperature;humidity
24772;DHT22;12870;52.274;9.754;2022-12-18T00:01:27;-5.50;99.90
24772;DHT22;12870;52.274;9.754;2022-12-18T00:03:54;-5.60;99.90
24772;DHT22;12870;52.274;9.754;2022-12-18T00:06:20;-5.60;99.90
24772;DHT22;12870;52.274;9.754;2022-12-18T00:08:46;-5.70;99.90
24772;DHT22;12870;52.274;9.754;2022-12-18T00:11:18;-5.80;99.90
24772;DHT22;12870;52.274;9.754;2022-12-18T00:13:44;-5.80;99.90
24772;DHT22;12870;52.274;9.754;2022-12-18T00:16:13;-5.90;99.90
24772;DHT22;12870;52.274;9.754;2022-12-18T00:18:39;-5.80;99.90
24772;DHT22;12870;52.274;9.754;2022-12-18T00:21:07;-5.70;99.90
24772;DHT22;12870;52.274;9.754;2022-12-18T00:23:34;-5.60;99.90
24772;DHT22;12870;52.274;9.754;2022-12-18T00:26:01;-5.50;99.90
24772;DHT22;12870;52.274;9.754;2022-12-18T00:28:27;-5.40;99.90
24772;DHT22;12870;52.274;9.754;2022-12-18T00:31:06;-5.40;99.90
24772;DHT22;12870;52.274;9.754;2022-12-18T00:33:33;-5.40;99.90
24772;DHT22;12870;52.274;9.754;2022-12-18T00:36:10;-5.40;99.90
24772;DHT22;12870;52.274;9.754;2022-12-18T00:38:36;-5.50;99.90
24772;DHT22;12870;52.274;9.754;2022-12-18T00:41:02;-5.60;99.90
24772;DHT22;12870;52.274;9.754;2022-12-18T00:43:28;-5.70;99.90
24772;DHT22;12870;52.274;9.754;2022-12-18T00:45:54;-5.80;99.90
24772;DHT22;12870;52.274;9.754;2022-12-18T00:48:20;-5.90;99.90
24772;DHT22;12870;52.274;9.754;2022-12-18T00:50:48;-6.00;99.90
24772;DHT22;12870;52.274;9.754;2022-12-18T00:53:13;-6.10;99.90
24772;DHT22;12870;52.274;9.754;2022-12-18T00:55:40;-6.10;99.90
24772;DHT22;12870;52.274;9.754;2022-12-18T00:58:06;-6.20;99.90
24772;DHT22;12870;52.274;9.754;2022-12-18T01:00:31;-6.20;99.90
24772;DHT22;12870;52.274;9.754;2022-12-18T01:02:57;-6.30;99.90
24772;DHT22;12870;52.274;9.754;2022-12-18T01:05:23;-6.30;99.90
24772;DHT22;12870;52.274;9.754;2022-12-18T01:07:48;-6.40;99.90
24772;DHT22;12870;52.274;9.754;2022-12-18T01:10:14;-6.50;99.90
24772;DHT22;12870;52.274;9.754;2022-12-18T01:12:40;-6.50;99.90
24772;DHT22;12870;52.274;9.754;2022-12-18T01:15:07;-6.50;99.90
24772;DHT22;12870;52.274;9.754;2022-12-18T01:17:33;-6.50;99.90
24772;DHT22;12870;52.274;9.754;2022-12-18T01:19:59;-6.50;99.90
24772;DHT22;12870;52.274;9.754;2022-12-18T01:22:24;-6.60;99.90
24772;DHT22;12870;52.274;9.754;2022-12-18T01:24:50;-6.60;99.90
24772;DHT22;12870;52.274;9.754;2022-12-18T01:27:17;-6.70;99.90
24772;DHT22;12870;52.274;9.754;2022-12-18T01:29:43;-6.70;99.90
24772;DHT22;12870;52.274;9.754;2022-12-18T01:32:09;-6.70;99.90
24772;DHT22;12870;52.274;9.754;2022-12-18T01:34:37;-6.70;99.90
24772;DHT22;12870;52.274;9.754;2022-12-18T01:37:04;-6.70;99.90
24772;DHT22;12870;52.274;9.754;2022-12-18T01:39:30;-6.70;99.90
24772;DHT22;12870;52.274;9.754;2022-12-18T01:41:58;-6.70;99.90
24772;DHT22;12870;52.274;9.754;2022-12-18T01:44:59;-6.70;99.90
24772;DHT22;12870;52.274;9.754;2022-12-18T01:47:43;-6.70;99.90
24772;DHT22;12870;52.274;9.754;2022-12-18T01:52:43;-6.60;99.90
24772;DHT22;12870;52.274;9.754;2022-12-18T01:55:11;-6.40;99.90
24772;DHT22;12870;52.274;9.754;2022-12-18T01:57:38;-6.10;99.90
24772;DHT22;12870;52.274;9.754;2022-12-18T02:00:09;-5.90;99.90
24772;DHT22;12870;52.274;9.754;2022-12-18T02:02:35;-5.70;99.90
24772;DHT22;12870;52.274;9.754;2022-12-18T02:05:02;-5.60;99.90
24772;DHT22;12870;52.274;9.754;2022-12-18T02:10:31;-5.40;99.90
24772;DHT22;12870;52.274;9.754;2022-12-18T02:13:38;-5.40;99.90
24772;DHT22;12870;52.274;9.754;2022-12-18T02:18:57;-5.30;99.90
24772;DHT22;12870;52.274;9.754;2022-12-18T02:27:01;-5.20;99.90
24772;DHT22;12870;52.274;9.754;2022-12-18T02:29:57;-5.10;99.90
24772;DHT22;12870;52.274;9.754;2022-12-18T02:32:28;-5.10;99.90
24772;DHT22;12870;52.274;9.754;2022-12-18T02:34:56;-5.00;99.90
24772;DHT22;12870;52.274;9.754;2022-12-18T02:37:23;-4.90;99.90
24772;DHT22;12870;52.274;9.754;2022-12-18T02:39:52;-4.90;99.90
24772;DHT22;12870;52.274;9.754;2022-12-18T02:42:20;-4.80;99.90
24772;DHT22;12870;52.274;9.754;2022-12-18T02:44:50;-4.80;99.90
24772;DHT22;12870;52.274;9.754;2022-12-18T02:47:19;-4.80;99.90
24772;DHT22;12870;52.274;9.754;2022-12-18T02:55:32;-4.80;99.90
24772;DHT22;12870;52.274;9.754;2022-12-18T03:03:58;-4.70;99.90
24772;DHT22;12870;52.274;9.754;2022-12-18T03:06:32;-4.70;99.90
24772;DHT22;12870;52.274;9.754;2022-12-18T03:09:01;-4.70;99.90
24772;DHT22;12870;52.274;9.754;2022-12-18T03:11:31;-4.80;99.90
24772;DHT22;12870;52.274;9.754;2022-12-18T03:14:18;-4.80;99.90
24772;DHT22;12870;52.274;9.754;2022-12-18T03:16:48;-4.80;99.90
24772;DHT22;12870;52.274;9.754;2022-12-18T03:19:21;-4.80;99.90
24772;DHT22;12870;52.274;9.754;2022-12-18T03:21:51;-4.80;99.90
24772;DHT22;12870;52.274;9.754;2022-12-18T03:24:17;-4.80;99.90
24772;DHT22;12870;52.274;9.754;2022-12-18T03:26:47;-4.80;99.90
24772;DHT22;12870;52.274;9.754;2022-12-18T03:29:21;-4.80;99.90
24772;DHT22;12870;52.274;9.754;2022-12-18T03:31:53;-4.80;99.90
24772;DHT22;12870;52.274;9.754;2022-12-18T03:34:24;-4.80;99.90
24772;DHT22;12870;52.274;9.754;2022-12-18T03:36:53;-4.80;99.90
24772;DHT22;12870;52.274;9.754;2022-12-18T03:39:19;-4.90;99.90
24772;DHT22;12870;52.274;9.754;2022-12-18T03:44:24;-4.80;99.90
24772;DHT22;12870;52.274;9.754;2022-12-18T03:47:16;-4.80;99.90
24772;DHT22;12870;52.274;9.754;2022-12-18T03:52:37;-4.90;99.90
24772;DHT22;12870;52.274;9.754;2022-12-18T03:55:05;-5.00;99.90
24772;DHT22;12870;52.274;9.754;2022-12-18T03:57:33;-5.00;99.90
24772;DHT22;12870;52.274;9.754;2022-12-18T04:00:04;-5.00;99.90
24772;DHT22;12870;52.274;9.754;2022-12-18T04:02:31;-5.10;99.90
24772;DHT22;12870;52.274;9.754;2022-12-18T04:05:01;-5.00;99.90
24772;DHT22;12870;52.274;9.754;2022-12-18T04:07:28;-5.10;99.90
24772;DHT22;12870;52.274;9.754;2022-12-18T04:09:56;-5.10;99.90
24772;DHT22;12870;52.274;9.754;2022-12-18T04:12:26;-5.00;99.90
24772;DHT22;12870;52.274;9.754;2022-12-18T04:14:53;-5.00;99.90
24772;DHT22;12870;52.274;9.754;2022-12-18T04:17:19;-5.00;99.90
24772;DHT22;12870;52.274;9.754;2022-12-18T04:19:45;-4.90;99.90
24772;DHT22;12870;52.274;9.754;2022-12-18T04:22:11;-4.90;99.90
24772;DHT22;12870;52.274;9.754;2022-12-18T04:24:37;-4.80;99.90
24772;DHT22;12870;52.274;9.754;2022-12-18T04:27:03;-4.80;99.90
24772;DHT22;12870;52.274;9.754;2022-12-18T04:29:29;-4.80;99.90
24772;DHT22;12870;52.274;9.754;2022-12-18T04:31:55;-4.80;99.90
24772;DHT22;12870;52.274;9.754;2022-12-18T04:34:21;-4.80;99.90
24772;DHT22;12870;52.274;9.754;2022-12-18T04:36:47;-4.80;99.90
24772;DHT22;12870;52.274;9.754;2022-12-18T04:39:13;-4.80;99.90
24772;DHT22;12870;52.274;9.754;2022-12-18T04:41:39;-4.90;99.90
24772;DHT22;12870;52.274;9.754;2022-12-18T04:44:05;-5.00;99.90
24772;DHT22;12870;52.274;9.754;2022-12-18T04:46:30;-4.90;99.90
24772;DHT22;12870;52.274;9.754;2022-12-18T04:48:56;-5.00;99.90
24772;DHT22;12870;52.274;9.754;2022-12-18T04:51:22;-4.90;99.90
24772;DHT22;12870;52.274;9.754;2022-12-18T04:53:47;-4.90;99.90
24772;DHT22;12870;52.274;9.754;2022-12-18T04:56:14;-4.90;99.90
24772;DHT22;12870;52.274;9.754;2022-12-18T04:58:42;-4.80;99.90
24772;DHT22;12870;52.274;9.754;2022-12-18T05:01:09;-4.70;99.90
24772;DHT22;12870;52.274;9.754;2022-12-18T05:03:36;-4.70;99.90
24772;DHT22;12870;52.274;9.754;2022-12-18T05:06:02;-4.60;99.90
24772;DHT22;12870;52.274;9.754;2022-12-18T05:08:28;-4.60;99.90
24772;DHT22;12870;52.274;9.754;2022-12-18T05:11:06;-4.40;99.90
24772;DHT22;12870;52.274;9.754;2022-12-18T05:13:33;-4.40;99.90
24772;DHT22;12870;52.274;9.754;2022-12-18T05:15:59;-4.40;99.90
24772;DHT22;12870;52.274;9.754;2022-12-18T05:18:25;-4.30;99.90
24772;DHT22;12870;52.274;9.754;2022-12-18T05:20:52;-4.30;99.90
24772;DHT22;12870;52.274;9.754;2022-12-18T05:23:19;-4.30;99.90
24772;DHT22;12870;52.274;9.754;2022-12-18T05:25:56;-4.30;99.90
24772;DHT22;12870;52.274;9.754;2022-12-18T05:28:24;-4.30;99.90
24772;DHT22;12870;52.274;9.754;2022-12-18T05:30:50;-4.30;99.90
24772;DHT22;12870;52.274;9.754;2022-12-18T05:33:17;-4.20;99.90
24772;DHT22;12870;52.274;9.754;2022-12-18T05:35:43;-4.20;99.90
24772;DHT22;12870;52.274;9.754;2022-12-18T05:38:09;-4.20;99.90
24772;DHT22;12870;52.274;9.754;2022-12-18T05:40:34;-4.20;99.90
24772;DHT22;12870;52.274;9.754;2022-12-18T05:43:00;-4.20;99.90
24772;DHT22;12870;52.274;9.754;2022-12-18T05:45:26;-4.10;99.90
24772;DHT22;12870;52.274;9.754;2022-12-18T05:47:52;-4.20;99.90
24772;DHT22;12870;52.274;9.754;2022-12-18T05:50:17;-4.10;99.90
24772;DHT22;12870;52.274;9.754;2022-12-18T05:52:43;-4.10;99.90
24772;DHT22;12870;52.274;9.754;2022-12-18T05:55:09;-4.00;99.90
24772;DHT22;12870;52.274;9.754;2022-12-18T05:57:34;-4.10;99.90
24772;DHT22;12870;52.274;9.754;2022-12-18T06:00:00;-4.10;99.90
24772;DHT22;12870;52.274;9.754;2022-12-18T06:02:26;-4.10;99.90
24772;DHT22;12870;52.274;9.754;2022-12-18T06:04:51;-4.10;99.90
24772;DHT22;12870;52.274;9.754;2022-12-18T06:07:17;-4.10;99.90
24772;DHT22;12870;52.274;9.754;2022-12-18T06:09:43;-4.10;99.90
24772;DHT22;12870;52.274;9.754;2022-12-18T06:12:09;-4.10;99.90
24772;DHT22;12870;52.274;9.754;2022-12-18T06:14:34;-4.10;99.90
24772;DHT22;12870;52.274;9.754;2022-12-18T06:17:00;-4.10;99.90
24772;DHT22;12870;52.274;9.754;2022-12-18T06:19:25;-4.10;99.90
24772;DHT22;12870;52.274;9.754;2022-12-18T06:21:51;-4.20;99.90
24772;DHT22;12870;52.274;9.754;2022-12-18T06:24:17;-4.20;99.90
24772;DHT22;12870;52.274;9.754;2022-12-18T06:26:42;-4.20;99.90
24772;DHT22;12870;52.274;9.754;2022-12-18T06:29:08;-4.20;99.90
24772;DHT22;12870;52.274;9.754;2022-12-18T06:31:34;-4.20;99.90
24772;DHT22;12870;52.274;9.754;2022-12-18T06:34:02;-4.20;99.90
24772;DHT22;12870;52.274;9.754;2022-12-18T06:36:28;-4.20;99.90
24772;DHT22;12870;52.274;9.754;2022-12-18T06:38:56;-4.20;99.90
24772;DHT22;12870;52.274;9.754;2022-12-18T06:41:22;-4.20;99.90
24772;DHT22;12870;52.274;9.754;2022-12-18T06:43:48;-4.10;99.90
24772;DHT22;12870;52.274;9.754;2022-12-18T06:46:14;-4.10;99.90
24772;DHT22;12870;52.274;9.754;2022-12-18T06:48:39;-4.10;99.90
24772;DHT22;12870;52.274;9.754;2022-12-18T06:51:05;-4.10;99.90
24772;DHT22;12870;52.274;9.754;2022-12-18T06:53:32;-4.10;99.90
24772;DHT22;12870;52.274;9.754;2022-12-18T06:56:02;-4.00;99.90
24772;DHT22;12870;52.274;9.754;2022-12-18T06:58:29;-4.00;99.90
24772;DHT22;12870;52.274;9.754;2022-12-18T07:01:00;-4.00;99.90
24772;DHT22;12870;52.274;9.754;2022-12-18T07:03:25;-4.00;99.90
24772;DHT22;12870;52.274;9.754;2022-12-18T07:05:51;-4.10;99.90
24772;DHT22;12870;52.274;9.754;2022-12-18T07:08:17;-4.10;99.90
24772;DHT22;12870;52.274;9.754;2022-12-18T07:10:43;-4.10;99.90
24772;DHT22;12870;52.274;9.754;2022-12-18T07:13:09;-4.20;99.90
24772;DHT22;12870;52.274;9.754;2022-12-18T07:15:35;-4.20;99.90
24772;DHT22;12870;52.274;9.754;2022-12-18T07:18:00;-4.20;99.90
24772;DHT22;12870;52.274;9.754;2022-12-18T07:20:26;-4.20;99.90
24772;DHT22;12870;52.274;9.754;2022-12-18T07:22:52;-4.30;99.90
24772;DHT22;12870;52.274;9.754;2022-12-18T07:25:17;-4.30;99.90
24772;DHT22;12870;52.274;9.754;2022-12-18T07:27:43;-4.30;99.90
24772;DHT22;12870;52.274;9.754;2022-12-18T07:30:09;-4.30;99.90
24772;DHT22;12870;52.274;9.754;2022-12-18T07:32:35;-4.30;99.90
24772;DHT22;12870;52.274;9.754;2022-12-18T07:35:01;-4.30;99.90
24772;DHT22;12870;52.274;9.754;2022-12-18T07:37:26;-4.40;99.90
24772;DHT22;12870;52.274;9.754;2022-12-18T07:39:52;-4.30;99.90
24772;DHT22;12870;52.274;9.754;2022-12-18T07:42:18;-4.30;99.90
24772;DHT22;12870;52.274;9.754;2022-12-18T07:44:59;-4.30;99.90
24772;DHT22;12870;52.274;9.754;2022-12-18T07:47:25;-4.20;99.90
24772;DHT22;12870;52.274;9.754;2022-12-18T07:49:51;-4.20;99.90
24772;DHT22;12870;52.274;9.754;2022-12-18T07:52:17;-4.20;99.90
24772;DHT22;12870;52.274;9.754;2022-12-18T07:54:42;-4.20;99.90
24772;DHT22;12870;52.274;9.754;2022-12-18T07:57:09;-4.20;99.90
24772;DHT22;12870;52.274;9.754;2022-12-18T07:59:34;-4.10;99.90
24772;DHT22;12870;52.274;9.754;2022-12-18T08:02:00;-4.10;99.90
24772;DHT22;12870;52.274;9.754;2022-12-18T08:04:26;-4.00;99.90
24772;DHT22;12870;52.274;9.754;2022-12-18T08:06:53;-3.80;99.90
24772;DHT22;12870;52.274;9.754;2022-12-18T08:09:18;-3.70;99.90
24772;DHT22;12870;52.274;9.754;2022-12-18T08:11:44;-3.70;99.90
24772;DHT22;12870;52.274;9.754;2022-12-18T08:14:10;-3.60;99.90
24772;DHT22;12870;52.274;9.754;2022-12-18T08:16:36;-3.50;99.90
24772;DHT22;12870;52.274;9.754;2022-12-18T08:19:02;-3.40;99.90
24772;DHT22;12870;52.274;9.754;2022-12-18T08:21:29;-3.40;99.90
24772;DHT22;12870;52.274;9.754;2022-12-18T08:23:59;-3.30;99.90
24772;DHT22;12870;52.274;9.754;2022-12-18T08:26:27;-3.40;99.90
24772;DHT22;12870;52.274;9.754;2022-12-18T08:28:55;-3.30;99.90
24772;DHT22;12870;52.274;9.754;2022-12-18T08:31:21;-3.30;99.90
24772;DHT22;12870;52.274;9.754;2022-12-18T08:33:52;-3.30;99.90
24772;DHT22;12870;52.274;9.754;2022-12-18T08:36:17;-3.30;99.90
24772;DHT22;12870;52.274;9.754;2022-12-18T08:38:43;-3.30;99.90
24772;DHT22;12870;52.274;9.754;2022-12-18T08:41:11;-3.40;99.90
24772;DHT22;12870;52.274;9.754;2022-12-18T08:43:37;-3.30;99.90
24772;DHT22;12870;52.274;9.754;2022-12-18T08:46:23;-3.30;99.90
24772;DHT22;12870;52.274;9.754;2022-12-18T08:48:54;-3.30;99.90
24772;DHT22;12870;52.274;9.754;2022-12-18T08:51:21;-3.30;99.90
24772;DHT22;12870;52.274;9.754;2022-12-18T08:53:47;-3.30;99.90
24772;DHT22;12870;52.274;9.754;2022-12-18T08:56:13;-3.30;99.90
24772;DHT22;12870;52.274;9.754;2022-12-18T08:58:40;-3.30;99.90
24772;DHT22;12870;52.274;9.754;2022-12-18T09:01:07;-3.20;99.90
24772;DHT22;12870;52.274;9.754;2022-12-18T09:03:37;-3.20;99.90
24772;DHT22;12870;52.274;9.754;2022-12-18T09:06:02;-3.20;99.90
24772;DHT22;12870;52.274;9.754;2022-12-18T09:08:29;-3.20;99.90
24772;DHT22;12870;52.274;9.754;2022-12-18T09:10:57;-3.10;99.90
24772;DHT22;12870;52.274;9.754;2022-12-18T09:13:23;-3.00;99.90
24772;DHT22;12870;52.274;9.754;2022-12-18T09:15:54;-2.90;99.90
24772;DHT22;12870;52.274;9.754;2022-12-18T09:18:22;-2.80;99.90
24772;DHT22;12870;52.274;9.754;2022-12-18T09:20:47;-2.70;99.90
24772;DHT22;12870;52.274;9.754;2022-12-18T09:23:13;-2.60;99.90
24772;DHT22;12870;52.274;9.754;2022-12-18T09:25:39;-2.50;99.90
24772;DHT22;12870;52.274;9.754;2022-12-18T09:28:13;-2.40;99.90
24772;DHT22;12870;52.274;9.754;2022-12-18T09:30:47;-2.30;99.90
24772;DHT22;12870;52.274;9.754;2022-12-18T09:33:14;-2.30;99.90
24772;DHT22;12870;52.274;9.754;2022-12-18T09:35:41;-2.20;99.90
24772;DHT22;12870;52.274;9.754;2022-12-18T09:38:08;-2.10;99.90
24772;DHT22;12870;52.274;9.754;2022-12-18T09:40:41;-2.10;99.90
24772;DHT22;12870;52.274;9.754;2022-12-18T09:43:14;-2.00;99.90
24772;DHT22;12870;52.274;9.754;2022-12-18T09:45:47;-2.00;99.90
24772;DHT22;12870;52.274;9.754;2022-12-18T09:48:37;-1.90;99.90
24772;DHT22;12870;52.274;9.754;2022-12-18T09:51:22;-1.90;99.90
24772;DHT22;12870;52.274;9.754;2022-12-18T09:53:57;-1.80;99.90
24772;DHT22;12870;52.274;9.754;2022-12-18T09:56:27;-1.70;99.90
24772;DHT22;12870;52.274;9.754;2022-12-18T09:58:57;-1.60;99.90
24772;DHT22;12870;52.274;9.754;2022-12-18T10:01:24;-1.40;99.90
24772;DHT22;12870;52.274;9.754;2022-12-18T10:03:50;-1.30;99.90
24772;DHT22;12870;52.274;9.754;2022-12-18T10:06:25;-1.20;99.90
24772;DHT22;12870;52.274;9.754;2022-12-18T10:11:56;-1.00;99.90
24772;DHT22;12870;52.274;9.754;2022-12-18T10:14:43;-0.90;99.90
24772;DHT22;12870;52.274;9.754;2022-12-18T10:17:24;-0.70;99.90
24772;DHT22;12870;52.274;9.754;2022-12-18T10:25:47;-0.40;99.90
24772;DHT22;12870;52.274;9.754;2022-12-18T10:28:16;-0.40;99.90
24772;DHT22;12870;52.274;9.754;2022-12-18T10:30:43;-0.30;99.90
24772;DHT22;12870;52.274;9.754;2022-12-18T10:33:14;-0.20;99.90
24772;DHT22;12870;52.274;9.754;2022-12-18T10:35:42;-0.20;99.90
24772;DHT22;12870;52.274;9.754;2022-12-18T10:41:08;0.20;99.90
24772;DHT22;12870;52.274;9.754;2022-12-18T10:46:36;0.40;99.90
24772;DHT22;12870;52.274;9.754;2022-12-18T10:49:02;0.50;99.90
24772;DHT22;12870;52.274;9.754;2022-12-18T10:51:34;0.60;99.90
24772;DHT22;12870;52.274;9.754;2022-12-18T10:54:06;0.90;99.90
24772;DHT22;12870;52.274;9.754;2022-12-18T10:56:38;1.20;99.90
24772;DHT22;12870;52.274;9.754;2022-12-18T10:59:06;1.60;99.90
24772;DHT22;12870;52.274;9.754;2022-12-18T11:01:52;2.20;99.90
24772;DHT22;12870;52.274;9.754;2022-12-18T11:04:26;2.80;99.90
24772;DHT22;12870;52.274;9.754;2022-12-18T11:09:39;3.70;99.90
24772;DHT22;12870;52.274;9.754;2022-12-18T11:12:19;4.40;99.90
24772;DHT22;12870;52.274;9.754;2022-12-18T11:14:52;5.20;99.90
24772;DHT22;12870;52.274;9.754;2022-12-18T11:17:29;5.40;99.90
24772;DHT22;12870;52.274;9.754;2022-12-18T11:20:00;5.10;99.90
24772;DHT22;12870;52.274;9.754;2022-12-18T11:22:28;5.00;99.90
24772;DHT22;12870;52.274;9.754;2022-12-18T11:27:51;5.50;99.90
24772;DHT22;12870;52.274;9.754;2022-12-18T11:30:29;5.90;99.90
24772;DHT22;12870;52.274;9.754;2022-12-18T11:33:21;5.80;99.90
24772;DHT22;12870;52.274;9.754;2022-12-18T11:36:00;5.40;99.90
24772;DHT22;12870;52.274;9.754;2022-12-18T11:38:41;5.20;99.90
24772;DHT22;12870;52.274;9.754;2022-12-18T11:41:37;5.70;99.90
24772;DHT22;12870;52.274;9.754;2022-12-18T11:44:30;6.30;99.90
24772;DHT22;12870;52.274;9.754;2022-12-18T11:47:08;7.40;99.90
24772;DHT22;12870;52.274;9.754;2022-12-18T11:49:35;8.40;99.90
24772;DHT22;12870;52.274;9.754;2022-12-18T11:54:45;10.00;99.90
24772;DHT22;12870;52.274;9.754;2022-12-18T11:59:53;10.60;99.90
24772;DHT22;12870;52.274;9.754;2022-12-18T12:05:25;10.40;99.90
24772;DHT22;12870;52.274;9.754;2022-12-18T12:08:21;10.30;99.50
24772;DHT22;12870;52.274;9.754;2022-12-18T12:10:48;10.30;99.10
24772;DHT22;12870;52.274;9.754;2022-12-18T12:18:37;8.80;97.60
24772;DHT22;12870;52.274;9.754;2022-12-18T12:26:35;7.30;98.30
24772;DHT22;12870;52.274;9.754;2022-12-18T12:34:43;5.70;99.90
24772;DHT22;12870;52.274;9.754;2022-12-18T12:37:33;5.30;99.90
24772;DHT22;12870;52.274;9.754;2022-12-18T12:40:04;4.80;99.90
24772;DHT22;12870;52.274;9.754;2022-12-18T12:42:58;4.40;99.90
24772;DHT22;12870;52.274;9.754;2022-12-18T12:45:53;4.00;99.90
24772;DHT22;12870;52.274;9.754;2022-12-18T12:48:43;3.70;99.90
24772;DHT22;12870;52.274;9.754;2022-12-18T12:51:25;3.30;99.90
24772;DHT22;12870;52.274;9.754;2022-12-18T12:53:51;3.00;99.90
24772;DHT22;12870;52.274;9.754;2022-12-18T12:56:19;2.70;99.90
24772;DHT22;12870;52.274;9.754;2022-12-18T12:59:13;2.60;99.90
24772;DHT22;12870;52.274;9.754;2022-12-18T13:01:43;2.40;99.90
24772;DHT22;12870;52.274;9.754;2022-12-18T13:07:15;2.10;99.90
24772;DHT22;12870;52.274;9.754;2022-12-18T13:13:03;1.80;99.90
24772;DHT22;12870;52.274;9.754;2022-12-18T13:20:36;1.50;99.90
24772;DHT22;12870;52.274;9.754;2022-12-18T13:23:25;1.40;99.90
24772;DHT22;12870;52.274;9.754;2022-12-18T13:36:47;0.90;99.90
24772;DHT22;12870;52.274;9.754;2022-12-18T13:41:48;0.70;99.90
24772;DHT22;12870;52.274;9.754;2022-12-18T13:46:59;0.50;99.90
24772;DHT22;12870;52.274;9.754;2022-12-18T13:49:38;0.50;99.90
24772;DHT22;12870;52.274;9.754;2022-12-18T13:54:54;0.30;99.90
24772;DHT22;12870;52.274;9.754;2022-12-18T13:57:28;0.20;99.90
24772;DHT22;12870;52.274;9.754;2022-12-18T13:59:54;0.10;99.90
24772;DHT22;12870;52.274;9.754;2022-12-18T14:02:23;0.00;99.90
24772;DHT22;12870;52.274;9.754;2022-12-18T14:04:49;-0.10;99.90
24772;DHT22;12870;52.274;9.754;2022-12-18T14:07:23;-0.10;99.90
24772;DHT22;12870;52.274;9.754;2022-12-18T14:09:52;-0.20;99.90
24772;DHT22;12870;52.274;9.754;2022-12-18T14:12:25;-0.30;99.90
24772;DHT22;12870;52.274;9.754;2022-12-18T14:17:51;-0.40;99.90
24772;DHT22;12870;52.274;9.754;2022-12-18T14:20:18;-0.50;99.90
24772;DHT22;12870;52.274;9.754;2022-12-18T14:22:45;-0.50;99.90
24772;DHT22;12870;52.274;9.754;2022-12-18T14:25:37;-0.50;99.90
24772;DHT22;12870;52.274;9.754;2022-12-18T14:28:15;-0.60;99.90
24772;DHT22;12870;52.274;9.754;2022-12-18T14:30:43;-0.60;99.90
24772;DHT22;12870;52.274;9.754;2022-12-18T14:33:12;-0.70;99.90
24772;DHT22;12870;52.274;9.754;2022-12-18T14:38:37;-0.80;99.90
24772;DHT22;12870;52.274;9.754;2022-12-18T14:41:12;-1.00;99.90
24772;DHT22;12870;52.274;9.754;2022-12-18T14:43:43;-1.00;99.90
24772;DHT22;12870;52.274;9.754;2022-12-18T14:46:30;-1.10;99.90
24772;DHT22;12870;52.274;9.754;2022-12-18T14:48:56;-1.10;99.90
24772;DHT22;12870;52.274;9.754;2022-12-18T14:51:24;-1.20;99.90
24772;DHT22;12870;52.274;9.754;2022-12-18T14:58:54;-1.30;99.90
24772;DHT22;12870;52.274;9.754;2022-12-18T15:01:26;-1.30;99.90
24772;DHT22;12870;52.274;9.754;2022-12-18T15:03:53;-1.30;99.90
24772;DHT22;12870;52.274;9.754;2022-12-18T15:08:56;-1.40;99.90
24772;DHT22;12870;52.274;9.754;2022-12-18T15:11:48;-1.40;99.90
24772;DHT22;12870;52.274;9.754;2022-12-18T15:14:23;-1.50;99.90
24772;DHT22;12870;52.274;9.754;2022-12-18T15:16:51;-1.50;99.90
24772;DHT22;12870;52.274;9.754;2022-12-18T15:19:18;-1.50;99.90
24772;DHT22;12870;52.274;9.754;2022-12-18T15:21:45;-1.60;99.90
24772;DHT22;12870;52.274;9.754;2022-12-18T15:24:18;-1.60;99.90
24772;DHT22;12870;52.274;9.754;2022-12-18T15:26:45;-1.60;99.90
24772;DHT22;12870;52.274;9.754;2022-12-18T15:29:20;-1.60;99.90
24772;DHT22;12870;52.274;9.754;2022-12-18T15:32:02;-1.60;99.90
24772;DHT22;12870;52.274;9.754;2022-12-18T15:34:28;-1.60;99.90
24772;DHT22;12870;52.274;9.754;2022-12-18T15:36:54;-1.60;99.90
24772;DHT22;12870;52.274;9.754;2022-12-18T15:39:20;-1.60;99.90
24772;DHT22;12870;52.274;9.754;2022-12-18T15:41:46;-1.60;99.90
24772;DHT22;12870;52.274;9.754;2022-12-18T15:44:30;-1.60;99.90
24772;DHT22;12870;52.274;9.754;2022-12-18T15:46:57;-1.60;99.90
24772;DHT22;12870;52.274;9.754;2022-12-18T15:49:22;-1.70;99.90
24772;DHT22;12870;52.274;9.754;2022-12-18T15:51:57;-1.70;99.90
24772;DHT22;12870;52.274;9.754;2022-12-18T15:54:23;-1.60;99.90
24772;DHT22;12870;52.274;9.754;2022-12-18T15:57:10;-1.70;99.90
24772;DHT22;12870;52.274;9.754;2022-12-18T15:59:48;-1.70;99.90
24772;DHT22;12870;52.274;9.754;2022-12-18T16:02:17;-1.70;99.90
24772;DHT22;12870;52.274;9.754;2022-12-18T16:04:43;-1.60;99.90
24772;DHT22;12870;52.274;9.754;2022-12-18T16:07:11;-1.60;99.90
24772;DHT22;12870;52.274;9.754;2022-12-18T16:09:40;-1.60;99.90
24772;DHT22;12870;52.274;9.754;2022-12-18T16:12:15;-1.60;99.90
24772;DHT22;12870;52.274;9.754;2022-12-18T16:14:42;-1.50;99.90
24772;DHT22;12870;52.274;9.754;2022-12-18T16:17:10;-1.40;99.90
24772;DHT22;12870;52.274;9.754;2022-12-18T16:19:36;-1.40;99.90
24772;DHT22;12870;52.274;9.754;2022-12-18T16:22:02;-1.40;99.90
24772;DHT22;12870;52.274;9.754;2022-12-18T16:24:30;-1.40;99.90
24772;DHT22;12870;52.274;9.754;2022-12-18T16:27:00;-1.40;99.90
24772;DHT22;12870;52.274;9.754;2022-12-18T16:29:27;-1.40;99.90
24772;DHT22;12870;52.274;9.754;2022-12-18T16:31:54;-1.40;99.90
24772;DHT22;12870;52.274;9.754;2022-12-18T16:34:25;-1.40;99.90
24772;DHT22;12870;52.274;9.754;2022-12-18T16:37:01;-1.40;99.90
24772;DHT22;12870;52.274;9.754;2022-12-18T16:39:27;-1.40;99.90
24772;DHT22;12870;52.274;9.754;2022-12-18T16:41:54;-1.40;99.90
24772;DHT22;12870;52.274;9.754;2022-12-18T16:44:19;-1.50;99.90
24772;DHT22;12870;52.274;9.754;2022-12-18T16:46:46;-1.50;99.90
24772;DHT22;12870;52.274;9.754;2022-12-18T16:49:16;-1.50;99.90
24772;DHT22;12870;52.274;9.754;2022-12-18T16:51:42;-1.50;99.90
24772;DHT22;12870;52.274;9.754;2022-12-18T16:54:09;-1.50;99.90
24772;DHT22;12870;52.274;9.754;2022-12-18T16:56:34;-1.50;99.90
24772;DHT22;12870;52.274;9.754;2022-12-18T16:59:02;-1.40;99.90
24772;DHT22;12870;52.274;9.754;2022-12-18T17:01:29;-1.40;99.90
24772;DHT22;12870;52.274;9.754;2022-12-18T17:03:57;-1.40;99.90
24772;DHT22;12870;52.274;9.754;2022-12-18T17:06:27;-1.30;99.90
24772;DHT22;12870;52.274;9.754;2022-12-18T17:08:58;-1.30;99.90
24772;DHT22;12870;52.274;9.754;2022-12-18T17:11:25;-1.30;99.90
24772;DHT22;12870;52.274;9.754;2022-12-18T17:13:51;-1.30;99.90
24772;DHT22;12870;52.274;9.754;2022-12-18T17:16:17;-1.30;99.90
24772;DHT22;12870;52.274;9.754;2022-12-18T17:18:46;-1.30;99.90
24772;DHT22;12870;52.274;9.754;2022-12-18T17:21:13;-1.30;99.90
24772;DHT22;12870;52.274;9.754;2022-12-18T17:23:42;-1.20;99.90
24772;DHT22;12870;52.274;9.754;2022-12-18T17:26:09;-1.20;99.90
24772;DHT22;12870;52.274;9.754;2022-12-18T17:28:36;-1.20;99.90
24772;DHT22;12870;52.274;9.754;2022-12-18T17:31:13;-1.10;99.90
24772;DHT22;12870;52.274;9.754;2022-12-18T17:33:39;-1.10;99.90
24772;DHT22;12870;52.274;9.754;2022-12-18T17:36:05;-1.00;99.90
24772;DHT22;12870;52.274;9.754;2022-12-18T17:38:31;-1.00;99.90
24772;DHT22;12870;52.274;9.754;2022-12-18T17:41:05;-0.80;99.90
24772;DHT22;12870;52.274;9.754;2022-12-18T17:43:31;-0.70;99.90
24772;DHT22;12870;52.274;9.754;2022-12-18T17:46:04;-0.50;99.90
24772;DHT22;12870;52.274;9.754;2022-12-18T17:48:30;-0.30;99.90